createdAt,value
2017-09-09T00:01:27.158Z,81.80
2017-09-09T00:03:54.745Z,82.00
2017-09-09T00:06:23.062Z,83.20
2017-09-09T00:08:51.381Z,82.50
2017-09-09T00:11:18.946Z,82.50
2017-09-09T00:13:46.491Z,82.80
2017-09-09T00:16:14.107Z,83.20
2017-09-09T00:18:41.650Z,81.60
2017-09-09T00:21:09.209Z,81.70
2017-09-09T00:23:36.779Z,82.00
2017-09-09T00:26:04.329Z,82.30
2017-09-09T00:28:31.914Z,82.40
2017-09-09T00:31:00.237Z,81.90
2017-09-09T00:33:27.797Z,81.90
2017-09-09T00:35:55.591Z,81.30
2017-09-09T00:38:23.144Z,81.50
2017-09-09T00:40:50.732Z,81.70
2017-09-09T00:43:19.059Z,82.40
2017-09-09T00:45:46.603Z,81.80
2017-09-09T00:48:14.206Z,81.90
2017-09-09T00:50:41.791Z,82.20
2017-09-09T00:53:10.193Z,82.30
2017-09-09T00:55:38.534Z,82.50
2017-09-09T00:58:06.103Z,82.60
2017-09-09T01:00:33.695Z,82.50
2017-09-09T01:03:01.264Z,83.00
2017-09-09T01:05:28.849Z,84.50
2017-09-09T01:07:56.407Z,86.60
2017-09-09T01:10:23.997Z,85.80
2017-09-09T01:12:51.560Z,83.70
2017-09-09T01:15:19.099Z,83.30
2017-09-09T01:17:46.699Z,83.10
2017-09-09T01:20:15.022Z,83.30
2017-09-09T01:22:42.596Z,83.30
2017-09-09T01:25:10.197Z,82.90
2017-09-09T01:27:37.777Z,82.20
2017-09-09T01:30:05.354Z,81.60
2017-09-09T01:32:32.906Z,82.90
2017-09-09T01:35:00.462Z,83.00
2017-09-09T01:37:28.052Z,83.20
2017-09-09T01:39:55.618Z,83.30
2017-09-09T01:42:23.205Z,83.60
2017-09-09T01:44:51.525Z,82.90
2017-09-09T01:47:19.072Z,82.90
2017-09-09T01:49:46.656Z,82.90
2017-09-09T01:52:14.219Z,82.50
2017-09-09T01:54:41.798Z,82.70
2017-09-09T01:57:09.345Z,82.40
2017-09-09T01:59:36.883Z,82.50
2017-09-09T02:02:04.459Z,82.00
2017-09-09T02:04:32.003Z,82.40
2017-09-09T02:06:59.591Z,82.80
2017-09-09T02:09:27.154Z,82.70
2017-09-09T02:11:54.709Z,82.60
2017-09-09T02:14:22.296Z,82.80
2017-09-09T02:16:50.617Z,83.30
2017-09-09T02:19:18.204Z,83.30
2017-09-09T02:21:45.747Z,82.10
2017-09-09T02:24:13.297Z,83.20
2017-09-09T02:26:40.869Z,82.60
2017-09-09T02:29:08.418Z,83.00
2017-09-09T02:31:36.003Z,81.90
2017-09-09T02:34:03.544Z,82.10
2017-09-09T02:36:31.109Z,85.30
2017-09-09T02:38:58.707Z,84.60
2017-09-09T02:41:27.043Z,83.70
2017-09-09T02:43:54.646Z,83.60
2017-09-09T02:46:22.960Z,83.80
2017-09-09T02:48:50.521Z,83.70
2017-09-09T02:51:18.100Z,84.80
2017-09-09T02:53:45.659Z,86.00
2017-09-09T02:56:13.231Z,84.70
2017-09-09T02:58:40.776Z,84.70
2017-09-09T03:01:08.342Z,84.40
2017-09-09T03:03:35.905Z,84.40
2017-09-09T03:06:03.447Z,84.50
2017-09-09T03:08:31.044Z,86.60
2017-09-09T03:10:58.603Z,86.10
2017-09-09T03:13:26.161Z,87.10
2017-09-09T03:15:53.747Z,85.40
2017-09-09T03:18:22.047Z,85.30
2017-09-09T03:20:49.632Z,85.30
2017-09-09T03:23:17.195Z,84.60
2017-09-09T03:25:44.745Z,85.30
2017-09-09T03:28:12.329Z,86.10
2017-09-09T03:30:39.887Z,87.50
2017-09-09T03:33:07.463Z,86.30
2017-09-09T03:35:35.461Z,87.30
2017-09-09T03:38:03.043Z,87.80
2017-09-09T03:40:30.616Z,87.40
2017-09-09T03:42:58.173Z,86.40
2017-09-09T03:45:25.751Z,86.50
2017-09-09T03:47:53.305Z,86.10
2017-09-09T03:50:20.863Z,84.80
2017-09-09T03:52:48.449Z,86.40
2017-09-09T03:55:16.019Z,86.50
2017-09-09T03:57:44.370Z,84.90
2017-09-09T04:00:11.934Z,84.70
2017-09-09T04:02:39.489Z,85.60
2017-09-09T04:05:07.073Z,86.20
2017-09-09T04:07:35.379Z,85.60
2017-09-09T04:10:02.937Z,85.60
2017-09-09T04:12:30.517Z,85.10
2017-09-09T04:14:58.077Z,85.50
2017-09-09T04:17:25.638Z,86.40
2017-09-09T04:19:53.208Z,85.90
2017-09-09T04:22:20.772Z,86.00
2017-09-09T04:24:48.357Z,86.10
2017-09-09T04:27:16.015Z,86.20
2017-09-09T04:29:43.564Z,86.30
2017-09-09T04:32:11.144Z,85.80
2017-09-09T04:34:38.706Z,85.70
2017-09-09T04:37:07.057Z,85.50
2017-09-09T04:39:34.617Z,85.30
2017-09-09T04:42:02.173Z,85.20
2017-09-09T04:44:29.752Z,85.80
2017-09-09T04:46:57.313Z,85.70
2017-09-09T04:49:24.902Z,84.90
2017-09-09T04:51:53.212Z,84.80
2017-09-09T04:54:20.764Z,84.80
2017-09-09T04:56:48.340Z,85.10
2017-09-09T04:59:15.902Z,85.40
2017-09-09T05:01:43.490Z,85.10
2017-09-09T05:04:11.052Z,85.10
2017-09-09T05:06:38.616Z,85.70
2017-09-09T05:09:06.965Z,86.60
2017-09-09T05:11:34.527Z,85.90
2017-09-09T05:14:02.118Z,85.50
2017-09-09T05:16:30.439Z,86.30
2017-09-09T05:18:58.002Z,86.30
2017-09-09T05:21:25.591Z,88.10
2017-09-09T05:23:53.158Z,89.30
2017-09-09T05:26:20.753Z,90.20
2017-09-09T05:28:49.063Z,90.70
2017-09-09T05:31:16.614Z,90.70
2017-09-09T05:33:44.193Z,91.20
2017-09-09T05:36:11.752Z,91.00
2017-09-09T05:38:39.344Z,90.70
2017-09-09T05:41:06.942Z,90.30
2017-09-09T05:43:34.491Z,90.00
2017-09-09T05:46:02.068Z,89.30
2017-09-09T05:48:29.625Z,88.60
2017-09-09T05:50:57.199Z,88.80
2017-09-09T05:53:24.751Z,88.70
2017-09-09T05:55:52.314Z,87.10
2017-09-09T05:58:19.884Z,87.00
2017-09-09T06:00:47.441Z,87.90
2017-09-09T06:03:15.025Z,87.20
2017-09-09T06:05:42.584Z,86.80
2017-09-09T06:08:10.159Z,87.90
2017-09-09T06:10:37.745Z,88.70
2017-09-09T06:13:06.083Z,89.40
2017-09-09T06:15:33.659Z,89.30
2017-09-09T06:18:01.227Z,90.20
2017-09-09T06:20:29.567Z,90.20
2017-09-09T06:22:57.141Z,89.90
2017-09-09T06:25:24.688Z,89.70
2017-09-09T06:27:52.270Z,86.80
2017-09-09T06:30:19.820Z,85.70
2017-09-09T06:32:47.377Z,85.30
2017-09-09T06:35:14.948Z,85.00
2017-09-09T06:37:42.510Z,84.60
2017-09-09T06:40:10.104Z,85.30
2017-09-09T06:42:37.665Z,85.40
2017-09-09T06:45:05.223Z,86.40
2017-09-09T06:47:32.823Z,85.90
2017-09-09T06:50:00.379Z,84.80
2017-09-09T06:52:27.972Z,85.60
2017-09-09T06:54:55.514Z,86.10
2017-09-09T06:57:23.073Z,85.40
2017-09-09T06:59:50.677Z,84.60
2017-09-09T07:02:19.001Z,85.60
2017-09-09T07:04:46.613Z,85.50
2017-09-09T07:07:14.170Z,85.50
2017-09-09T07:09:42.479Z,86.40
2017-09-09T07:12:10.057Z,86.40
2017-09-09T07:14:37.616Z,86.00
2017-09-09T07:17:05.201Z,85.70
2017-09-09T07:19:32.743Z,85.20
2017-09-09T07:22:00.288Z,84.90
2017-09-09T07:24:27.893Z,84.70
2017-09-09T07:26:56.216Z,84.50
2017-09-09T07:29:23.804Z,84.50
2017-09-09T07:31:51.351Z,84.50
2017-09-09T07:34:18.913Z,84.60
2017-09-09T07:36:46.485Z,84.40
2017-09-09T07:39:14.036Z,84.00
2017-09-09T07:41:42.395Z,85.70
2017-09-09T07:44:09.960Z,85.70
2017-09-09T07:46:37.526Z,87.50
2017-09-09T07:49:05.115Z,84.00
2017-09-09T07:51:32.674Z,84.00
2017-09-09T07:54:00.248Z,82.20
2017-09-09T07:56:27.811Z,81.40
2017-09-09T07:58:56.173Z,81.00
2017-09-09T08:01:23.760Z,80.90
2017-09-09T08:03:52.080Z,81.60
2017-09-09T08:06:19.689Z,81.60
2017-09-09T08:08:47.241Z,82.00
2017-09-09T08:11:14.798Z,81.60
2017-09-09T08:13:42.377Z,83.30
2017-09-09T08:16:10.717Z,84.20
2017-09-09T08:18:38.344Z,84.10
2017-09-09T08:21:05.928Z,84.20
2017-09-09T08:23:33.496Z,83.60
2017-09-09T08:26:01.086Z,82.40
2017-09-09T08:28:29.411Z,79.60
2017-09-09T08:30:57.012Z,79.60
2017-09-09T08:33:25.360Z,77.10
2017-09-09T08:35:52.929Z,76.50
2017-09-09T08:38:20.515Z,77.70
2017-09-09T08:40:48.836Z,78.00
2017-09-09T08:43:16.431Z,77.20
2017-09-09T08:45:44.017Z,77.60
2017-09-09T08:48:12.335Z,78.50
2017-09-09T08:50:39.917Z,78.50
2017-09-09T08:53:07.479Z,73.10
2017-09-09T08:55:35.066Z,70.70
2017-09-09T08:58:02.617Z,71.60
2017-09-09T09:00:30.189Z,70.70
2017-09-09T09:02:58.543Z,73.90
2017-09-09T09:05:26.121Z,73.90
2017-09-09T09:07:54.772Z,72.20
2017-09-09T09:10:22.340Z,72.10
2017-09-09T09:12:49.893Z,72.60
2017-09-09T09:15:17.474Z,73.80
2017-09-09T09:17:45.029Z,71.00
2017-09-09T09:20:12.625Z,73.50
2017-09-09T09:22:40.966Z,70.50
2017-09-09T09:25:08.524Z,70.40
2017-09-09T09:27:36.120Z,71.40
2017-09-09T09:30:04.450Z,70.90
2017-09-09T09:32:32.029Z,70.90
2017-09-09T09:34:59.596Z,70.20
2017-09-09T09:37:27.150Z,71.40
2017-09-09T09:39:55.807Z,70.40
2017-09-09T09:42:23.606Z,69.80
2017-09-09T09:44:51.180Z,70.40
2017-09-09T09:47:19.537Z,72.60
2017-09-09T09:49:47.090Z,72.60
2017-09-09T09:52:14.672Z,72.90
2017-09-09T09:54:43.008Z,70.80
2017-09-09T09:57:10.585Z,71.00
2017-09-09T09:59:38.236Z,71.10
2017-09-09T10:02:05.794Z,72.80
2017-09-09T10:04:33.363Z,75.10
2017-09-09T10:07:00.945Z,70.90
2017-09-09T10:09:28.495Z,70.90
2017-09-09T10:11:56.075Z,73.10
2017-09-09T10:14:24.406Z,71.80
2017-09-09T10:16:51.968Z,71.70
2017-09-09T10:19:19.565Z,70.20
2017-09-09T10:21:47.129Z,69.00
2017-09-09T10:27:16.615Z,69.80
2017-09-09T10:29:44.214Z,67.10
2017-09-09T10:32:12.539Z,67.80
2017-09-09T10:34:40.085Z,67.60
2017-09-09T10:37:07.666Z,66.30
2017-09-09T10:39:35.227Z,66.50
2017-09-09T10:42:02.810Z,66.80
2017-09-09T10:44:30.374Z,66.50
2017-09-09T10:46:57.953Z,64.30
2017-09-09T10:49:26.302Z,64.20
2017-09-09T10:51:53.864Z,64.20
2017-09-09T10:54:21.444Z,63.50
2017-09-09T10:56:49.790Z,64.50
2017-09-09T10:59:17.341Z,64.60
2017-09-09T11:01:44.917Z,64.30
2017-09-09T11:04:12.474Z,64.70
2017-09-09T11:06:40.081Z,64.70
2017-09-09T11:09:08.413Z,66.40
2017-09-09T11:11:35.975Z,66.40
2017-09-09T11:14:03.571Z,65.70
2017-09-09T11:16:31.908Z,69.30
2017-09-09T11:18:59.487Z,69.30
2017-09-09T11:21:27.049Z,67.60
2017-09-09T11:23:54.610Z,69.10
2017-09-09T11:26:22.197Z,70.40
2017-09-09T11:28:50.512Z,68.40
2017-09-09T11:31:18.123Z,68.30
2017-09-09T11:33:46.453Z,68.20
2017-09-09T11:36:14.012Z,68.10
2017-09-09T11:38:41.611Z,67.10
2017-09-09T11:41:09.940Z,71.60
2017-09-09T11:43:37.521Z,71.60
2017-09-09T11:46:05.087Z,68.50
2017-09-09T11:48:32.680Z,69.10
2017-09-09T11:51:01.076Z,70.20
2017-09-09T11:53:29.384Z,69.50
2017-09-09T11:55:56.972Z,69.40
2017-09-09T11:58:24.539Z,71.50
2017-09-09T12:00:52.864Z,71.20
2017-09-09T12:03:20.438Z,71.00
2017-09-09T12:05:48.007Z,71.70
2017-09-09T12:08:15.593Z,72.30
2017-09-09T12:10:43.136Z,70.60
2017-09-09T12:13:10.675Z,70.70
2017-09-09T12:15:38.249Z,69.90
2017-09-09T12:18:05.792Z,72.60
2017-09-09T12:20:33.386Z,72.00
2017-09-09T12:23:00.955Z,71.40
2017-09-09T12:25:28.539Z,71.60
2017-09-09T12:27:56.888Z,71.60
2017-09-09T12:30:24.459Z,71.50
2017-09-09T12:32:52.815Z,71.90
2017-09-09T12:35:20.383Z,71.90
2017-09-09T12:37:47.927Z,72.20
2017-09-09T12:40:15.505Z,73.50
2017-09-09T12:42:43.058Z,71.90
2017-09-09T12:45:10.632Z,72.30
2017-09-09T12:47:38.936Z,72.60
2017-09-09T12:50:06.496Z,72.10
2017-09-09T12:52:34.083Z,72.70
2017-09-09T12:55:01.628Z,73.00
2017-09-09T12:57:29.225Z,72.60
2017-09-09T12:59:56.795Z,72.00
2017-09-09T13:02:24.366Z,73.30
2017-09-09T13:04:52.719Z,71.60
2017-09-09T13:07:20.276Z,72.00
2017-09-09T13:09:47.857Z,74.10
2017-09-09T13:12:15.412Z,74.80
2017-09-09T13:14:42.975Z,71.80
2017-09-09T13:17:10.567Z,72.60
2017-09-09T13:19:38.881Z,72.50
2017-09-09T13:22:06.567Z,72.50
2017-09-09T13:24:34.136Z,72.40
2017-09-09T13:27:01.698Z,72.10
2017-09-09T13:29:29.276Z,72.00
2017-09-09T13:31:57.611Z,74.50
2017-09-09T13:34:25.188Z,74.30
2017-09-09T13:36:52.731Z,72.90
2017-09-09T13:39:20.281Z,73.40
2017-09-09T13:41:47.846Z,72.90
2017-09-09T13:44:15.401Z,73.10
2017-09-09T13:46:42.979Z,72.80
2017-09-09T13:49:10.544Z,73.90
2017-09-09T13:51:38.466Z,72.20
2017-09-09T13:54:06.161Z,73.80
2017-09-09T13:56:33.722Z,73.10
2017-09-09T13:59:01.351Z,73.80
2017-09-09T14:01:28.895Z,73.90
2017-09-09T14:03:56.471Z,73.60
2017-09-09T14:06:24.051Z,73.50
2017-09-09T14:08:51.623Z,72.40
2017-09-09T14:11:19.201Z,71.30
2017-09-09T14:13:47.526Z,73.70
2017-09-09T14:16:15.088Z,73.30
2017-09-09T14:18:42.652Z,73.60
2017-09-09T14:21:10.205Z,73.70
2017-09-09T14:23:37.773Z,74.00
2017-09-09T14:26:05.332Z,74.40
2017-09-09T14:28:32.903Z,74.60
2017-09-09T14:31:00.513Z,75.90
2017-09-09T14:33:28.834Z,75.80
2017-09-09T14:35:56.390Z,75.80
2017-09-09T14:38:23.980Z,75.70
2017-09-09T14:40:51.546Z,77.20
2017-09-09T14:43:19.139Z,76.60
2017-09-09T14:45:47.477Z,77.50
2017-09-09T14:48:15.024Z,77.50
2017-09-09T14:50:42.605Z,77.00
2017-09-09T14:53:10.156Z,77.20
2017-09-09T14:55:37.715Z,77.30
2017-09-09T14:58:05.280Z,76.60
2017-09-09T15:00:32.823Z,76.60
2017-09-09T15:03:00.394Z,76.20
2017-09-09T15:05:27.945Z,76.60
2017-09-09T15:07:55.512Z,76.20
2017-09-09T15:10:23.101Z,76.70
2017-09-09T15:12:51.426Z,76.30
2017-09-09T15:15:19.024Z,76.30
2017-09-09T15:17:46.572Z,76.70
2017-09-09T15:20:14.121Z,77.00
2017-09-09T15:22:41.700Z,77.30
2017-09-09T15:25:09.257Z,77.50
2017-09-09T15:27:37.619Z,77.90
2017-09-09T15:30:05.179Z,78.00
2017-09-09T15:32:32.749Z,77.50
2017-09-09T15:35:00.315Z,78.10
2017-09-09T15:37:28.651Z,77.30
2017-09-09T15:39:56.238Z,77.20
2017-09-09T15:42:26.030Z,76.90
2017-09-09T15:44:53.743Z,77.20
2017-09-09T15:47:22.124Z,77.60
2017-09-09T15:49:49.720Z,77.60
2017-09-09T15:52:17.314Z,77.10
2017-09-09T15:54:44.874Z,77.10
2017-09-09T15:57:12.439Z,76.70
2017-09-09T15:59:40.026Z,76.20
2017-09-09T16:02:08.568Z,77.20
2017-09-09T16:04:36.139Z,77.20
2017-09-09T16:07:03.691Z,78.50
2017-09-09T16:09:31.249Z,79.00
2017-09-09T16:11:58.823Z,79.20
2017-09-09T16:14:26.393Z,79.20
2017-09-09T16:16:54.731Z,79.60
2017-09-09T16:19:22.295Z,79.60
2017-09-09T16:21:49.848Z,80.10
2017-09-09T16:24:17.437Z,80.20
2017-09-09T16:26:44.998Z,80.30
2017-09-09T16:29:13.345Z,80.80
2017-09-09T16:31:40.882Z,80.70
2017-09-09T16:34:08.440Z,81.10
2017-09-09T16:36:36.865Z,81.20
2017-09-09T16:39:04.433Z,81.30
2017-09-09T16:41:32.066Z,81.40
2017-09-09T16:43:59.641Z,81.10
2017-09-09T16:46:27.191Z,81.30
2017-09-09T16:48:54.780Z,81.60
2017-09-09T16:51:22.374Z,81.70
2017-09-09T16:53:49.966Z,81.10
2017-09-09T16:56:17.503Z,80.90
2017-09-09T16:58:45.043Z,81.00
2017-09-09T17:01:13.380Z,81.10
2017-09-09T17:03:40.945Z,81.10
2017-09-09T17:06:08.529Z,81.40
2017-09-09T17:08:36.856Z,81.30
2017-09-09T17:11:04.394Z,81.30
2017-09-09T17:13:31.961Z,81.10
2017-09-09T17:15:59.537Z,81.60
2017-09-09T17:18:28.504Z,81.30
2017-09-09T17:20:56.068Z,81.10
2017-09-09T17:23:23.610Z,80.90
2017-09-09T17:25:51.964Z,81.20
2017-09-09T17:28:19.620Z,81.00
2017-09-09T17:30:47.213Z,81.10
2017-09-09T17:33:14.784Z,80.90
2017-09-09T17:35:42.355Z,81.20
2017-09-09T17:38:09.936Z,80.70
2017-09-09T17:40:37.501Z,80.40
2017-09-09T17:43:05.079Z,81.00
2017-09-09T17:45:32.619Z,80.50
2017-09-09T17:48:00.167Z,79.90
2017-09-09T17:50:27.754Z,79.70
2017-09-09T17:52:55.332Z,80.30
2017-09-09T17:55:23.689Z,81.00
2017-09-09T17:57:51.254Z,80.90
2017-09-09T18:00:19.629Z,80.70
2017-09-09T18:02:47.245Z,80.70
2017-09-09T18:05:14.793Z,80.50
2017-09-09T18:07:42.397Z,81.10
2017-09-09T18:10:09.975Z,81.00
2017-09-09T18:12:38.306Z,81.00
2017-09-09T18:15:05.885Z,81.00
2017-09-09T18:17:33.521Z,81.10
2017-09-09T18:20:01.110Z,80.90
2017-09-09T18:22:28.673Z,81.20
2017-09-09T18:24:56.256Z,81.10
2017-09-09T18:27:24.614Z,81.30
2017-09-09T18:29:52.166Z,81.30
2017-09-09T18:32:19.748Z,81.40
2017-09-09T18:34:47.314Z,81.80
2017-09-09T18:37:15.661Z,81.60
2017-09-09T18:39:43.273Z,81.70
2017-09-09T18:42:11.616Z,81.30
2017-09-09T18:44:39.202Z,81.30
2017-09-09T18:47:06.769Z,81.20
2017-09-09T18:49:35.101Z,81.20
2017-09-09T18:52:02.686Z,81.20
2017-09-09T18:54:31.008Z,81.40
2017-09-09T18:56:58.618Z,81.40
2017-09-09T18:59:26.211Z,80.90
2017-09-09T19:01:53.775Z,81.00
2017-09-09T19:04:21.387Z,80.90
2017-09-09T19:06:48.941Z,80.60
2017-09-09T19:09:16.532Z,80.80
2017-09-09T19:11:44.864Z,80.90
2017-09-09T19:14:12.433Z,80.80
2017-09-09T19:16:40.097Z,80.00
2017-09-09T19:19:07.670Z,79.70
2017-09-09T19:21:35.278Z,79.60
2017-09-09T19:24:02.850Z,78.70
2017-09-09T19:26:30.437Z,78.40
2017-09-09T19:28:58.048Z,78.80
2017-09-09T19:31:25.610Z,79.60
2017-09-09T19:33:54.010Z,79.60
2017-09-09T19:36:21.578Z,79.60
2017-09-09T19:38:49.132Z,79.70
2017-09-09T19:41:16.705Z,80.00
2017-09-09T19:43:44.275Z,79.80
2017-09-09T19:46:11.853Z,79.40
2017-09-09T19:48:39.403Z,79.70
2017-09-09T19:51:06.955Z,79.30
2017-09-09T19:53:34.720Z,79.80
2017-09-09T19:56:02.287Z,80.10
2017-09-09T19:58:29.885Z,80.20
2017-09-09T20:00:57.439Z,80.00
2017-09-09T20:03:25.761Z,80.70
2017-09-09T20:05:53.346Z,80.60
2017-09-09T20:08:21.687Z,80.90
2017-09-09T20:10:49.251Z,80.90
2017-09-09T20:13:16.827Z,80.80
2017-09-09T20:15:44.409Z,80.70
2017-09-09T20:18:12.719Z,79.90
2017-09-09T20:20:41.061Z,79.90
2017-09-09T20:23:08.634Z,79.90
2017-09-09T20:25:36.247Z,80.20
2017-09-09T20:28:03.829Z,80.70
2017-09-09T20:30:31.393Z,80.30
2017-09-09T20:32:58.981Z,80.10
2017-09-09T20:35:27.301Z,80.50
2017-09-09T20:37:54.902Z,80.50
2017-09-09T20:40:22.469Z,80.80
2017-09-09T20:42:50.781Z,80.30
2017-09-09T20:45:18.367Z,79.90
2017-09-09T20:47:45.926Z,80.70
2017-09-09T20:50:13.521Z,80.70
2017-09-09T20:52:41.105Z,80.70
2017-09-09T20:55:08.752Z,80.90
2017-09-09T20:57:37.118Z,81.30
2017-09-09T21:00:04.683Z,81.30
2017-09-09T21:02:32.269Z,81.20
2017-09-09T21:04:59.841Z,81.20
2017-09-09T21:07:27.400Z,81.40
2017-09-09T21:09:55.008Z,81.40
2017-09-09T21:12:22.556Z,81.60
2017-09-09T21:14:50.141Z,81.70
2017-09-09T21:17:17.740Z,81.80
2017-09-09T21:19:45.306Z,81.80
2017-09-09T21:22:12.888Z,82.00
2017-09-09T21:24:40.431Z,82.00
2017-09-09T21:27:08.013Z,81.70
2017-09-09T21:29:35.559Z,81.70
2017-09-09T21:32:03.108Z,81.70
2017-09-09T21:34:30.721Z,81.70
2017-09-09T21:36:59.079Z,81.80
2017-09-09T21:39:26.680Z,81.90
2017-09-09T21:41:55.015Z,81.90
2017-09-09T21:44:22.585Z,81.90
2017-09-09T21:46:50.208Z,82.10
2017-09-09T21:49:17.765Z,81.60
2017-09-09T21:51:45.358Z,81.20
2017-09-09T21:54:12.916Z,81.60
2017-09-09T21:56:40.549Z,81.70
2017-09-09T21:59:08.136Z,81.90
2017-09-09T22:01:35.738Z,82.20
2017-09-09T22:04:04.098Z,81.70
2017-09-09T22:06:31.657Z,81.70
2017-09-09T22:08:59.213Z,81.90
2017-09-09T22:11:26.802Z,82.00
2017-09-09T22:13:54.394Z,82.00
2017-09-09T22:16:21.988Z,82.80
2017-09-09T22:18:49.543Z,82.10
2017-09-09T22:21:17.130Z,82.10
2017-09-09T22:23:45.498Z,82.30
2017-09-09T22:26:13.823Z,82.30
2017-09-09T22:28:41.433Z,82.30
2017-09-09T22:31:09.788Z,82.80
2017-09-09T22:33:37.386Z,82.20
2017-09-09T22:36:05.733Z,82.50
2017-09-09T22:38:33.298Z,82.50
2017-09-09T22:41:00.894Z,82.40
2017-09-09T22:43:28.460Z,82.20
2017-09-09T22:45:56.026Z,82.20
2017-09-09T22:48:23.636Z,82.10
2017-09-09T22:50:51.220Z,82.10
2017-09-09T22:53:19.576Z,82.00
2017-09-09T22:55:47.119Z,82.60
2017-09-09T22:58:14.664Z,81.70
2017-09-09T23:00:42.245Z,81.90
2017-09-09T23:03:09.801Z,82.20
2017-09-09T23:05:37.376Z,82.30
2017-09-09T23:08:04.952Z,82.40
2017-09-09T23:10:33.300Z,82.00
2017-09-09T23:13:00.883Z,82.00
2017-09-09T23:15:28.447Z,82.30
2017-09-09T23:17:56.080Z,82.50
2017-09-09T23:20:23.660Z,82.50
2017-09-09T23:22:51.238Z,82.30
2017-09-09T23:25:18.817Z,82.00
2017-09-09T23:27:46.377Z,82.00
2017-09-09T23:30:13.947Z,81.90
2017-09-09T23:32:41.507Z,81.90
2017-09-09T23:35:09.069Z,81.90
2017-09-09T23:37:36.650Z,82.00
2017-09-09T23:40:04.226Z,82.00
2017-09-09T23:42:31.874Z,82.00
2017-09-09T23:44:59.456Z,82.30
2017-09-09T23:47:27.026Z,82.10
2017-09-09T23:49:55.365Z,81.90
2017-09-09T23:52:22.927Z,82.20
2017-09-09T23:54:50.503Z,82.30
2017-09-09T23:57:18.058Z,82.20
2017-09-09T23:59:45.616Z,82.30
